Time;durP1;ratioP1;P1;durP2;ratioP2;P2;SDS_P1;SDS_P2;PMS_P1;PMS_P2;Temp;Humidity;BMP_temperature;BMP_pressure;BME280_temperature;BME280_humidity;BME280_pressure;Samples;Min_cycle;Max_cycle;Signal;HPM_P1;HPM_P2
2023/09/21 00:00:38;;;;;;;2.83;1.35;;;;;;;16.66;79.52;99752.56;7387079;19;20340;-62
2023/09/21 00:03:07;;;;;;;5.68;1.60;;;;;;;16.63;79.73;99758.38;7386410;19;20372;-61
2023/09/21 00:05:35;;;;;;;5.35;1.45;;;;;;;16.62;79.55;99751.41;7387159;19;20381;-61
2023/09/21 00:08:03;;;;;;;3.33;1.40;;;;;;;16.60;79.84;99755.38;7385140;19;20343;-62
2023/09/21 00:10:32;;;;;;;5.40;1.50;;;;;;;16.57;80.15;99753.97;7386355;19;20389;-61
2023/09/21 00:12:59;;;;;;;3.30;1.27;;;;;;;16.55;80.28;99748.03;7386324;19;20364;-63
2023/09/21 00:15:29;;;;;;;3.25;1.33;;;;;;;16.51;80.44;99745.03;7386722;19;20369;-62
2023/09/21 00:17:56;;;;;;;2.63;1.50;;;;;;;16.49;80.58;99744.47;7384077;19;20348;-63
2023/09/21 00:20:25;;;;;;;2.83;1.17;;;;;;;16.48;80.52;99744.69;7386006;19;20411;-61
2023/09/21 00:22:55;;;;;;;4.13;1.60;;;;;;;16.47;80.74;99737.72;7386862;19;20408;-62
2023/09/21 00:25:23;;;;;;;3.67;1.50;;;;;;;16.45;80.64;99746.00;7386812;19;20364;-62
2023/09/21 00:27:50;;;;;;;2.58;1.42;;;;;;;16.45;80.72;99739.81;7383427;19;20364;-62
2023/09/21 00:30:17;;;;;;;3.00;1.40;;;;;;;16.43;81.11;99732.03;7384295;19;20440;-62
2023/09/21 00:32:44;;;;;;;2.75;1.40;;;;;;;16.42;81.21;99737.59;7386927;19;20373;-60
2023/09/21 00:35:11;;;;;;;2.90;1.60;;;;;;;16.41;80.97;99731.44;7387165;19;20372;-62
2023/09/21 00:37:39;;;;;;;4.28;1.58;;;;;;;16.40;81.15;99737.84;7384089;19;20447;-60
2023/09/21 00:40:16;;;;;;;4.53;1.40;;;;;;;16.38;81.20;99729.22;7383284;19;20372;-61
2023/09/21 00:42:45;;;;;;;4.47;1.58;;;;;;;16.38;81.55;99728.41;7382745;19;20361;-62
2023/09/21 00:45:14;;;;;;;3.10;1.50;;;;;;;16.35;81.40;99718.19;7379899;19;20376;-62
2023/09/21 00:47:46;;;;;;;4.47;1.30;;;;;;;16.36;81.77;99719.81;7379439;19;21115;-62
2023/09/21 00:50:13;;;;;;;2.95;1.35;;;;;;;16.37;81.41;99716.09;7384140;19;20368;-60
2023/09/21 00:52:42;;;;;;;3.92;1.30;;;;;;;16.37;81.59;99716.09;7382093;19;20364;-62
2023/09/21 00:55:12;;;;;;;2.93;1.30;;;;;;;16.37;81.73;99711.56;7384589;19;20364;-62
2023/09/21 00:57:40;;;;;;;3.78;1.50;;;;;;;16.35;81.59;99710.16;7382048;19;20379;-62
2023/09/21 01:00:16;;;;;;;4.78;1.40;;;;;;;16.34;81.49;99705.84;7383696;19;20420;-61
2023/09/21 01:02:46;;;;;;;3.92;1.40;;;;;;;16.33;81.88;99704.25;7382747;19;20363;-61
2023/09/21 01:05:13;;;;;;;3.85;1.60;;;;;;;16.30;81.58;99706.34;7382468;19;20412;-62
2023/09/21 01:07:42;;;;;;;4.82;1.70;;;;;;;16.28;81.81;99705.75;7381243;19;20700;-62
2023/09/21 01:10:11;;;;;;;4.63;1.45;;;;;;;16.26;82.02;99699.03;7384055;19;20364;-63
2023/09/21 01:12:44;;;;;;;3.40;1.48;;;;;;;16.21;82.24;99702.38;7382890;19;20375;-62
2023/09/21 01:15:11;;;;;;;4.30;1.85;;;;;;;16.19;82.29;99704.47;7383274;19;20364;-63
2023/09/21 01:17:41;;;;;;;4.10;1.40;;;;;;;16.17;82.39;99705.78;7381552;19;20372;-62
2023/09/21 01:20:22;;;;;;;2.83;1.37;;;;;;;16.14;82.51;99707.06;7382463;19;20828;-62
2023/09/21 01:23:18;;;;;;;4.13;1.50;;;;;;;16.10;82.65;99688.00;7384109;19;20887;-62
2023/09/21 01:25:52;;;;;;;4.65;1.88;;;;;;;16.09;82.96;99693.59;7383971;19;20713;-63
2023/09/21 01:28:21;;;;;;;3.88;1.73;;;;;;;16.06;83.02;99688.69;7382699;19;20343;-63
2023/09/21 01:30:57;;;;;;;4.13;1.70;;;;;;;16.03;82.86;99684.63;7382252;19;20886;-62
2023/09/21 01:33:24;;;;;;;3.60;1.40;;;;;;;16.04;83.24;99688.13;7382436;19;20962;-63
2023/09/21 01:35:51;;;;;;;3.70;1.48;;;;;;;16.05;83.26;99690.56;7384406;19;20394;-63
2023/09/21 01:38:19;;;;;;;3.55;1.50;;;;;;;16.09;83.05;99690.91;7381269;19;20376;-62
2023/09/21 01:40:46;;;;;;;3.83;1.70;;;;;;;16.13;83.42;99683.22;7379800;19;20376;-63
2023/09/21 01:43:16;;;;;;;2.53;1.58;;;;;;;16.18;83.13;99681.47;7382026;19;20371;-64
2023/09/21 01:45:48;;;;;;;3.33;1.45;;;;;;;16.23;82.88;99684.22;7382920;19;20364;-63
2023/09/21 01:48:20;;;;;;;2.92;1.30;;;;;;;16.28;82.76;99679.00;7384556;19;20379;-63
2023/09/21 01:50:50;;;;;;;2.88;1.58;;;;;;;16.33;82.56;99672.94;7382200;19;20491;-63
2023/09/21 01:53:22;;;;;;;2.90;1.60;;;;;;;16.39;82.20;99665.81;7379700;19;20902;-63
2023/09/21 01:55:50;;;;;;;4.38;1.50;;;;;;;16.47;81.86;99662.78;7379570;19;20702;-63
2023/09/21 01:58:19;;;;;;;4.57;1.50;;;;;;;16.49;81.72;99658.78;7379795;19;20389;-63
2023/09/21 02:00:47;;;;;;;3.63;1.60;;;;;;;16.56;81.35;99660.53;7380463;19;20820;-63
2023/09/21 02:03:19;;;;;;;2.83;1.70;;;;;;;16.61;81.51;99649.88;7384151;19;20352;-63
2023/09/21 02:05:46;;;;;;;4.53;1.80;;;;;;;16.65;81.15;99659.06;7383779;19;20365;-62
2023/09/21 02:08:16;;;;;;;2.93;1.57;;;;;;;16.65;80.82;99643.81;7381370;19;20700;-63
2023/09/21 02:10:46;;;;;;;3.38;1.55;;;;;;;16.67;80.68;99641.72;7379084;19;20390;-62
2023/09/21 02:13:14;;;;;;;5.00;1.65;;;;;;;16.68;80.44;99638.00;7380894;19;20348;-63
2023/09/21 02:15:43;;;;;;;2.25;1.40;;;;;;;16.69;80.50;99639.59;7380149;19;20390;-63
2023/09/21 02:18:11;;;;;;;4.27;2.00;;;;;;;16.69;80.09;99639.59;7377898;19;20410;-62
2023/09/21 02:20:44;;;;;;;3.25;1.60;;;;;;;16.69;80.10;99626.22;7382342;19;20702;-63
2023/09/21 02:23:12;;;;;;;2.75;1.55;;;;;;;16.71;79.97;99631.34;7382660;19;20344;-63
2023/09/21 02:25:40;;;;;;;2.85;1.50;;;;;;;16.72;79.98;99627.59;7379038;19;20337;-63
2023/09/21 02:28:11;;;;;;;3.28;1.85;;;;;;;16.74;79.67;99625.47;7380329;19;20719;-62
2023/09/21 02:30:46;;;;;;;4.50;1.63;;;;;;;16.78;79.24;99623.13;7382808;19;20820;-62
2023/09/21 02:33:16;;;;;;;2.65;1.60;;;;;;;16.82;79.12;99627.00;7379737;19;20373;-62
2023/09/21 02:35:46;;;;;;;2.95;1.77;;;;;;;16.85;78.66;99613.09;7379898;19;20360;-63
2023/09/21 02:38:17;;;;;;;2.60;1.67;;;;;;;16.90;78.38;99607.84;7380075;19;20336;-61
2023/09/21 02:40:45;;;;;;;3.37;1.53;;;;;;;16.95;78.28;99615.94;7380671;19;20693;-61
2023/09/21 02:43:15;;;;;;;3.85;1.52;;;;;;;16.98;77.88;99612.81;7385222;19;20373;-62
2023/09/21 02:45:44;;;;;;;3.47;1.50;;;;;;;17.00;77.85;99608.03;7386659;19;20373;-62
2023/09/21 02:48:14;;;;;;;2.90;1.80;;;;;;;17.04;77.33;99608.31;7387583;19;20372;-62
2023/09/21 02:50:44;;;;;;;3.72;1.83;;;;;;;17.07;77.07;99610.53;7387082;19;20332;-62
2023/09/21 02:53:12;;;;;;;3.00;1.70;;;;;;;17.06;76.92;99601.66;7386143;19;20376;-62
2023/09/21 02:55:42;;;;;;;3.80;1.70;;;;;;;17.07;76.74;99600.63;7384572;19;20432;-62
2023/09/21 02:58:11;;;;;;;3.22;1.90;;;;;;;17.10;76.80;99605.47;7390611;19;20441;-62
2023/09/21 03:00:49;;;;;;;3.40;1.88;;;;;;;17.11;76.69;99593.72;7386826;19;20380;-62
2023/09/21 03:03:22;;;;;;;4.25;1.90;;;;;;;17.09;76.23;99584.31;7385143;19;20892;-61
2023/09/21 03:05:52;;;;;;;3.00;1.70;;;;;;;17.16;76.15;99584.13;7386108;19;20395;-62
2023/09/21 03:08:22;;;;;;;5.50;1.80;;;;;;;17.16;75.94;99590.28;7385083;19;20368;-62
2023/09/21 03:10:54;;;;;;;4.78;1.90;;;;;;;17.19;75.42;99589.81;7385445;19;20981;-63
2023/09/21 03:13:22;;;;;;;4.40;1.85;;;;;;;17.20;75.40;99579.91;7383798;19;20369;-63
2023/09/21 03:15:53;;;;;;;3.13;1.80;;;;;;;17.21;75.27;99581.50;7389514;19;20352;-62
2023/09/21 03:18:21;;;;;;;4.45;1.77;;;;;;;17.21;74.93;99586.88;7385874;19;20915;-63
2023/09/21 03:20:52;;;;;;;3.58;1.50;;;;;;;17.23;75.09;99598.16;7386326;19;20657;-62
2023/09/21 03:23:21;;;;;;;3.93;1.70;;;;;;;17.21;74.42;99584.19;7386446;19;20354;-62
2023/09/21 03:25:49;;;;;;;3.88;1.83;;;;;;;17.21;74.32;99585.00;7384189;19;20360;-62
2023/09/21 03:28:18;;;;;;;3.88;1.88;;;;;;;17.21;74.09;99573.47;7386848;19;20372;-62
2023/09/21 03:30:50;;;;;;;4.85;1.80;;;;;;;17.21;74.09;99576.97;7386351;19;20710;-62
2023/09/21 03:33:20;;;;;;;3.50;1.85;;;;;;;17.22;73.99;99573.22;7386067;19;20371;-62
2023/09/21 03:35:48;;;;;;;3.97;1.70;;;;;;;17.23;73.94;99576.72;7384608;19;20344;-62
2023/09/21 03:38:18;;;;;;;5.03;1.90;;;;;;;17.24;73.76;99575.69;7387634;19;20357;-62
2023/09/21 03:40:51;;;;;;;3.22;2.00;;;;;;;17.23;73.46;99574.03;7384613;19;20956;-62
2023/09/21 03:43:18;;;;;;;3.65;1.73;;;;;;;17.25;73.14;99571.94;7385021;19;20381;-62
2023/09/21 03:45:46;;;;;;;3.85;2.03;;;;;;;17.25;73.20;99559.31;7385562;19;20398;-62
2023/09/21 03:48:13;;;;;;;3.75;1.80;;;;;;;17.24;73.08;99567.63;7388553;19;20659;-62
2023/09/21 03:50:42;;;;;;;3.40;1.80;;;;;;;17.23;72.93;99566.81;7384433;19;20375;-62
2023/09/21 03:53:11;;;;;;;3.20;1.92;;;;;;;17.21;73.15;99560.06;7381885;19;20893;-63
2023/09/21 03:55:40;;;;;;;5.10;2.00;;;;;;;17.19;73.12;99554.97;7385620;19;20367;-62
2023/09/21 03:58:07;;;;;;;4.03;2.00;;;;;;;17.18;72.80;99555.22;7383702;19;20675;-61
2023/09/21 04:03:11;;;;;;;4.18;1.98;;;;;;;17.15;72.75;99550.34;7384242;19;20752;-62
2023/09/21 04:06:02;;;;;;;5.63;2.20;;;;;;;17.14;73.08;99546.03;7382953;19;20671;-62
2023/09/21 04:08:31;;;;;;;3.22;2.00;;;;;;;17.10;73.20;99546.53;7385545;19;20451;-62
2023/09/21 04:10:59;;;;;;;3.97;1.90;;;;;;;17.08;73.16;99545.94;7385348;19;20913;-62
2023/09/21 04:13:26;;;;;;;3.78;2.13;;;;;;;17.07;73.07;99538.19;7384152;19;20725;-63
2023/09/21 04:15:53;;;;;;;5.47;2.30;;;;;;;17.04;73.03;99534.13;7385386;19;20361;-65
2023/09/21 04:18:20;;;;;;;4.38;2.00;;;;;;;17.03;72.87;99537.84;7382042;19;20726;-62
2023/09/21 04:20:51;;;;;;;3.90;2.45;;;;;;;17.01;73.07;99537.28;7384107;19;20849;-62
2023/09/21 04:23:36;;;;;;;3.67;2.20;;;;;;;17.01;73.14;99539.16;7385410;19;20420;-62
2023/09/21 04:26:05;;;;;;;4.88;2.22;;;;;;;17.01;73.10;99539.16;7383605;19;20380;-62
2023/09/21 04:28:31;;;;;;;4.05;2.03;;;;;;;17.02;72.96;99532.72;7381748;19;20376;-62
2023/09/21 04:31:01;;;;;;;3.45;1.92;;;;;;;17.03;73.08;99537.06;7384512;19;20397;-62
2023/09/21 04:33:28;;;;;;;4.47;2.42;;;;;;;17.01;73.02;99529.25;7380359;19;20368;-62
2023/09/21 04:35:55;;;;;;;5.70;2.10;;;;;;;17.02;73.44;99525.53;7384278;19;20352;-61
2023/09/21 04:38:22;;;;;;;4.30;2.40;;;;;;;17.01;73.47;99528.44;7383683;19;20368;-62
2023/09/21 04:40:52;;;;;;;4.28;2.13;;;;;;;16.99;73.43;99528.69;7384839;19;20448;-62
2023/09/21 04:43:20;;;;;;;3.78;2.17;;;;;;;16.99;73.59;99530.56;7384200;19;20371;-62
2023/09/21 04:45:48;;;;;;;5.00;2.10;;;;;;;16.98;73.78;99527.06;7384045;19;20388;-63
2023/09/21 04:48:15;;;;;;;4.10;2.07;;;;;;;16.96;73.84;99531.88;7384378;19;20415;-62
2023/09/21 04:50:46;;;;;;;4.80;2.05;;;;;;;16.94;73.54;99528.63;7386974;19;20356;-62
2023/09/21 04:53:13;;;;;;;4.35;2.00;;;;;;;16.87;73.64;99528.78;7384048;19;20703;-63
2023/09/21 04:55:40;;;;;;;6.35;2.40;;;;;;;16.79;73.89;99536.38;7381001;19;20352;-63
2023/09/21 04:58:07;;;;;;;3.78;1.98;;;;;;;16.70;74.09;99531.44;7382586;19;20403;-63
2023/09/21 05:00:34;;;;;;;5.60;2.10;;;;;;;16.61;74.30;99524.84;7382580;19;20371;-63
2023/09/21 05:03:02;;;;;;;5.30;1.90;;;;;;;16.52;74.49;99526.31;7384810;19;20487;-62
2023/09/21 05:05:29;;;;;;;4.85;1.90;;;;;;;16.43;74.81;99522.44;7381692;19;20412;-63
2023/09/21 05:07:56;;;;;;;5.03;1.90;;;;;;;16.35;75.33;99517.47;7382152;19;20692;-63
2023/09/21 05:10:23;;;;;;;5.00;1.80;;;;;;;16.27;75.54;99521.34;7381191;19;20413;-63
2023/09/21 05:12:52;;;;;;;5.50;2.13;;;;;;;16.22;75.85;99515.91;7383529;19;20356;-63
2023/09/21 05:15:19;;;;;;;4.25;1.90;;;;;;;16.17;76.07;99508.63;7382599;19;20380;-62
2023/09/21 05:17:46;;;;;;;6.07;2.20;;;;;;;16.15;76.16;99516.06;7385599;19;20371;-62
2023/09/21 05:20:12;;;;;;;9.02;2.28;;;;;;;16.09;76.56;99523.19;7383494;19;20340;-62
2023/09/21 05:22:39;;;;;;;8.60;2.10;;;;;;;16.07;76.95;99519.13;7382071;19;21025;-63
2023/09/21 05:25:07;;;;;;;6.88;2.00;;;;;;;16.06;76.83;99518.28;7379582;19;20883;-63
2023/09/21 05:27:34;;;;;;;4.00;2.00;;;;;;;16.06;77.20;99525.50;7385694;19;20406;-63
2023/09/21 05:30:04;;;;;;;4.60;2.00;;;;;;;16.07;77.32;99519.13;7384046;19;20720;-62
2023/09/21 05:32:35;;;;;;;5.68;2.63;;;;;;;16.07;77.17;99513.78;7377206;19;20436;-63
2023/09/21 05:35:08;;;;;;;5.50;2.15;;;;;;;16.09;77.48;99523.19;7382680;19;20357;-63
2023/09/21 05:37:35;;;;;;;4.55;2.22;;;;;;;16.13;78.06;99512.00;7384482;19;20368;-62
2023/09/21 05:40:05;;;;;;;4.00;2.03;;;;;;;16.15;77.81;99513.41;7382156;19;20352;-63
2023/09/21 05:42:34;;;;;;;3.28;2.00;;;;;;;16.19;78.04;99509.16;7386064;19;20340;-64
2023/09/21 05:45:00;;;;;;;8.05;2.63;;;;;;;16.23;78.30;99515.66;7383591;19;20390;-63
2023/09/21 05:47:27;;;;;;;5.17;2.60;;;;;;;16.29;78.41;99516.56;7383548;19;20436;-62
2023/09/21 05:49:54;;;;;;;4.68;1.83;;;;;;;16.35;78.14;99515.59;7383911;19;20394;-64
2023/09/21 05:52:22;;;;;;;4.10;2.05;;;;;;;16.42;78.19;99512.75;7383876;19;20376;-64
2023/09/21 05:54:48;;;;;;;4.97;2.47;;;;;;;16.46;78.30;99513.91;7382802;19;20370;-64
2023/09/21 05:57:15;;;;;;;7.82;2.40;;;;;;;16.58;81.70;99509.28;7384817;19;20370;-62
2023/09/21 05:59:44;;;;;;;7.53;2.35;;;;;;;17.26;82.35;99506.56;7383861;19;20356;-63
2023/09/21 06:02:13;;;;;;;5.30;2.53;;;;;;;18.09;81.79;99511.81;7380775;19;20385;-64
2023/09/21 06:04:44;;;;;;;6.32;3.28;;;;;;;18.85;80.78;99500.94;7388381;19;20721;-62
2023/09/21 06:07:11;;;;;;;4.43;2.15;;;;;;;19.49;77.17;99504.50;7389997;19;20389;-62
2023/09/21 06:09:39;;;;;;;4.88;2.00;;;;;;;19.99;74.25;99496.88;7389382;19;20876;-62
2023/09/21 06:12:07;;;;;;;4.90;1.90;;;;;;;20.43;71.65;99504.47;7387303;19;20450;-62
2023/09/21 06:14:36;;;;;;;5.50;2.10;;;;;;;20.83;69.42;99505.53;7389900;19;20365;-62
2023/09/21 06:17:06;;;;;;;4.47;2.47;;;;;;;21.18;67.88;99502.75;7387366;19;20360;-62
2023/09/21 06:19:34;;;;;;;3.92;1.90;;;;;;;21.49;65.38;99499.19;7397343;19;20365;-62
2023/09/21 06:22:02;;;;;;;6.10;3.70;;;;;;;21.75;64.66;99497.97;7396927;19;20351;-61
2023/09/21 06:24:29;;;;;;;3.67;1.83;;;;;;;21.98;63.34;99501.88;7397211;19;20884;-62
2023/09/21 06:26:56;;;;;;;5.00;2.58;;;;;;;22.17;62.48;99491.22;7395939;19;20375;-62
2023/09/21 06:29:23;;;;;;;6.40;2.20;;;;;;;22.39;62.07;99481.91;7397914;19;20371;-62
2023/09/21 06:31:54;;;;;;;4.78;2.45;;;;;;;22.63;61.01;99489.25;7395483;19;20385;-62
2023/09/21 06:34:25;;;;;;;24.20;15.10;;;;;;;22.76;60.09;99475.88;7396410;19;21015;-62
2023/09/21 06:36:52;;;;;;;4.68;2.55;;;;;;;22.88;59.59;99474.69;7397236;19;20355;-62
2023/09/21 06:39:21;;;;;;;18.10;10.23;;;;;;;22.98;59.55;99469.97;7395928;19;20364;-60
2023/09/21 06:41:48;;;;;;;42.67;25.13;;;;;;;23.11;59.83;99475.81;7396315;19;20368;-62
2023/09/21 06:44:18;;;;;;;14.75;7.22;;;;;;;23.24;59.05;99469.72;7397709;19;20707;-62
2023/09/21 06:46:45;;;;;;;7.13;1.83;;;;;;;23.34;58.80;99471.50;7396634;19;20364;-62
2023/09/21 06:49:12;;;;;;;8.05;4.10;;;;;;;23.41;58.23;99477.34;7396624;19;20378;-62
2023/09/21 06:51:39;;;;;;;4.53;2.00;;;;;;;23.49;57.49;99473.22;7395357;19;20348;-62
2023/09/21 06:54:06;;;;;;;4.68;2.33;;;;;;;23.57;57.73;99470.66;7394860;19;20384;-63
2023/09/21 06:56:33;;;;;;;8.33;2.83;;;;;;;23.66;56.94;99472.72;7396272;19;20352;-62
2023/09/21 06:59:00;;;;;;;6.70;3.30;;;;;;;23.50;54.76;99463.97;7394951;19;20340;-63
2023/09/21 07:01:26;;;;;;;23.35;14.15;;;;;;;23.28;55.43;99469.94;7395104;19;20391;-62
2023/09/21 07:03:53;;;;;;;24.48;15.93;;;;;;;23.25;56.49;99465.94;7393009;19;20381;-63
2023/09/21 07:06:20;;;;;;;4.22;1.73;;;;;;;23.20;55.75;99464.06;7395751;19;20379;-62
2023/09/21 07:08:47;;;;;;;19.37;13.47;;;;;;;22.98;55.23;99452.94;7394414;19;20454;-63
2023/09/21 07:11:15;;;;;;;3.80;1.80;;;;;;;22.76;55.89;99462.38;7393645;19;20422;-63
2023/09/21 07:13:46;;;;;;;4.88;2.70;;;;;;;22.62;56.76;99458.72;7394291;19;20395;-62
2023/09/21 07:16:14;;;;;;;4.57;2.20;;;;;;;22.56;57.33;99457.16;7393509;19;20372;-62
2023/09/21 07:18:43;;;;;;;23.25;16.23;;;;;;;22.60;58.02;99458.19;7395264;19;20355;-62
2023/09/21 07:21:11;;;;;;;4.10;1.57;;;;;;;22.67;57.70;99463.28;7395910;19;20365;-62
2023/09/21 07:23:38;;;;;;;28.40;20.35;;;;;;;22.70;58.07;99460.81;7394674;19;20884;-62
2023/09/21 07:26:05;;;;;;;4.00;1.58;;;;;;;22.82;57.50;99457.69;7394790;19;20369;-62
2023/09/21 07:28:32;;;;;;;4.03;1.97;;;;;;;22.80;57.53;99457.19;7394134;19;20375;-62
2023/09/21 07:31:01;;;;;;;12.13;7.22;;;;;;;22.81;57.95;99453.41;7395366;19;20908;-62
2023/09/21 07:33:30;;;;;;;28.52;19.40;;;;;;;22.87;57.97;99456.88;7395095;19;20393;-63
2023/09/21 07:35:57;;;;;;;3.30;1.60;;;;;;;22.95;57.33;99448.09;7391941;19;20356;-62
2023/09/21 07:38:24;;;;;;;23.83;17.58;;;;;;;23.16;57.32;99449.53;7394570;19;20897;-62
2023/09/21 07:40:51;;;;;;;81.78;63.50;;;;;;;23.28;56.32;99446.41;7394406;19;20374;-63
2023/09/21 07:43:18;;;;;;;8.43;4.85;;;;;;;23.27;55.84;99450.22;7391584;19;20377;-62
2023/09/21 07:45:53;;;;;;;3.20;2.15;;;;;;;23.29;55.12;99450.72;7391779;19;20371;-63
2023/09/21 07:48:22;;;;;;;5.70;3.88;;;;;;;23.44;56.12;99430.78;7394944;19;20868;-63
2023/09/21 07:50:50;;;;;;;5.30;2.65;;;;;;;23.63;55.46;99436.19;7394377;19;20348;-63
2023/09/21 07:53:19;;;;;;;34.90;23.60;;;;;;;23.83;54.69;99424.28;7393603;19;20352;-63
2023/09/21 07:55:46;;;;;;;11.82;7.22;;;;;;;23.98;54.32;99424.06;7392335;19;20908;-63
2023/09/21 07:58:13;;;;;;;2.72;1.40;;;;;;;24.15;54.06;99420.78;7392807;19;20472;-63
2023/09/21 08:00:39;;;;;;;3.03;1.77;;;;;;;24.38;53.13;99421.78;7394635;19;20335;-62
2023/09/21 08:03:06;;;;;;;72.60;53.22;;;;;;;24.54;52.84;99419.59;7394229;19;20360;-63
2023/09/21 08:05:34;;;;;;;4.38;1.52;;;;;;;24.62;52.42;99412.69;7392861;19;20891;-63
2023/09/21 08:08:01;;;;;;;30.70;18.25;;;;;;;24.72;52.17;99425.28;7393828;19;20376;-63
2023/09/21 08:10:32;;;;;;;12.05;7.28;;;;;;;24.70;51.37;99427.47;7394096;19;20356;-63
2023/09/21 08:13:01;;;;;;;25.80;18.75;;;;;;;24.59;51.09;99426.88;7393929;19;20356;-63
2023/09/21 08:15:27;;;;;;;5.43;2.47;;;;;;;24.48;51.00;99420.78;7392226;19;20373;-63
2023/09/21 08:17:54;;;;;;;4.45;1.95;;;;;;;24.52;51.56;99424.53;7392097;19;20361;-63
2023/09/21 08:20:22;;;;;;;2.45;1.20;;;;;;;24.47;51.92;99421.88;7393342;19;20376;-63
2023/09/21 08:22:49;;;;;;;3.00;1.70;;;;;;;24.31;51.31;99417.81;7393104;19;20371;-63
2023/09/21 08:25:16;;;;;;;10.70;5.57;;;;;;;24.21;51.93;99419.63;7393136;19;20363;-63
2023/09/21 08:27:43;;;;;;;2.83;1.33;;;;;;;24.19;51.71;99426.44;7391774;19;20394;-62
2023/09/21 08:30:11;;;;;;;7.60;4.85;;;;;;;24.11;51.48;99421.69;7393337;19;20364;-63
2023/09/21 08:32:39;;;;;;;7.95;3.53;;;;;;;24.16;51.95;99429.72;7391203;19;20865;-63
2023/09/21 08:35:07;;;;;;;5.97;1.67;;;;;;;24.25;51.94;99419.00;7391470;19;20880;-63
2023/09/21 08:37:35;;;;;;;11.97;6.43;;;;;;;24.26;50.95;99424.13;7389671;19;20391;-63
2023/09/21 08:40:02;;;;;;;5.00;2.72;;;;;;;24.32;51.06;99420.25;7389970;19;20364;-63
2023/09/21 08:42:30;;;;;;;2.80;1.23;;;;;;;24.36;50.90;99415.84;7393023;19;20382;-63
2023/09/21 08:44:57;;;;;;;3.97;1.52;;;;;;;24.41;51.18;99421.16;7392721;19;20353;-63
2023/09/21 08:47:28;;;;;;;8.82;4.88;;;;;;;24.49;50.72;99435.19;7391593;19;20360;-63
2023/09/21 08:50:07;;;;;;;2.15;1.17;;;;;;;24.48;50.63;99425.38;7392789;19;20372;-63
2023/09/21 08:52:34;;;;;;;3.22;1.73;;;;;;;24.59;51.45;99427.66;7391988;19;20365;-63
2023/09/21 08:55:01;;;;;;;10.32;5.55;;;;;;;24.69;50.50;99428.56;7391024;19;20902;-63
2023/09/21 08:57:28;;;;;;;5.77;2.43;;;;;;;24.80;50.52;99430.81;7392140;19;20403;-63
2023/09/21 09:00:00;;;;;;;8.05;5.80;;;;;;;24.86;49.85;99436.13;7392467;19;21075;-63
2023/09/21 09:02:27;;;;;;;7.65;4.03;;;;;;;24.90;49.51;99437.13;7392840;19;20435;-63
2023/09/21 09:04:55;;;;;;;2.90;1.42;;;;;;;24.92;49.69;99443.06;7392567;19;20905;-63
2023/09/21 09:07:22;;;;;;;100.20;69.45;;;;;;;24.90;49.92;99446.06;7388896;19;20368;-63
2023/09/21 09:09:49;;;;;;;3.83;1.70;;;;;;;24.81;49.43;99439.72;7391448;19;20916;-62
2023/09/21 09:12:23;;;;;;;3.78;2.05;;;;;;;24.62;50.01;99429.75;7390417;19;20767;-63
2023/09/21 09:14:52;;;;;;;4.20;2.20;;;;;;;24.57;50.94;99431.78;7390238;19;20453;-63
2023/09/21 09:17:19;;;;;;;4.30;2.03;;;;;;;24.62;50.33;99428.97;7390275;19;20373;-63
2023/09/21 09:19:47;;;;;;;8.95;6.68;;;;;;;24.52;50.42;99426.44;7391197;19;20884;-62
2023/09/21 09:22:16;;;;;;;3.58;1.58;;;;;;;24.52;50.79;99423.72;7391782;19;20367;-62
2023/09/21 09:24:50;;;;;;;2.22;1.40;;;;;;;24.56;51.12;99424.72;7390067;19;20888;-63
2023/09/21 09:27:20;;;;;;;2.95;1.30;;;;;;;24.58;51.31;99433.38;7391221;19;20713;-63
2023/09/21 09:29:57;;;;;;;3.72;1.40;;;;;;;24.57;50.73;99426.34;7392282;19;20424;-62
2023/09/21 09:32:35;;;;;;;4.45;1.70;;;;;;;24.64;51.35;99420.53;7391023;19;20364;-63
2023/09/21 09:35:05;;;;;;;3.75;1.70;;;;;;;24.67;51.11;99420.72;7389485;19;20790;-63
2023/09/21 09:37:34;;;;;;;3.17;1.52;;;;;;;24.75;50.68;99422.75;7391973;19;20328;-63
2023/09/21 09:40:05;;;;;;;26.60;17.88;;;;;;;24.69;50.76;99420.44;7390091;19;20368;-63
2023/09/21 09:42:32;;;;;;;5.05;1.55;;;;;;;24.77;50.30;99417.81;7389761;19;20686;-63
2023/09/21 09:45:03;;;;;;;2.33;1.10;;;;;;;24.71;50.39;99410.88;7390592;19;20376;-63
2023/09/21 09:47:35;;;;;;;3.95;1.17;;;;;;;24.78;50.61;99410.50;7391680;19;20353;-63
2023/09/21 09:50:04;;;;;;;6.57;1.30;;;;;;;24.85;50.96;99404.69;7390845;19;20359;-63
2023/09/21 09:52:33;;;;;;;2.75;1.27;;;;;;;24.88;50.74;99421.13;7391649;19;20356;-63
2023/09/21 09:55:00;;;;;;;2.15;1.30;;;;;;;24.80;51.17;99409.09;7390931;19;20348;-63
2023/09/21 09:57:29;;;;;;;2.40;1.25;;;;;;;24.70;51.18;99406.59;7391103;19;20387;-63
2023/09/21 09:59:57;;;;;;;2.60;1.55;;;;;;;24.70;51.48;99403.88;7391523;19;20356;-63
2023/09/21 10:02:25;;;;;;;3.40;1.20;;;;;;;24.78;52.34;99397.75;7389811;19;20451;-62
2023/09/21 10:04:52;;;;;;;3.83;1.37;;;;;;;24.99;52.29;99405.47;7389871;19;20413;-64
2023/09/21 10:07:19;;;;;;;2.60;1.33;;;;;;;25.14;51.94;99399.75;7390904;19;20440;-62
2023/09/21 10:09:46;;;;;;;3.08;1.23;;;;;;;25.23;51.55;99413.44;7387763;19;20361;-62
2023/09/21 10:12:17;;;;;;;2.15;1.20;;;;;;;25.21;51.17;99402.88;7388649;19;20364;-62
2023/09/21 10:14:45;;;;;;;2.93;1.20;;;;;;;25.32;51.78;99400.72;7390171;19;20701;-62
2023/09/21 10:17:14;;;;;;;1.73;1.00;;;;;;;25.33;50.78;99398.81;7389740;19;20895;-62
2023/09/21 10:19:43;;;;;;;3.20;1.30;;;;;;;25.30;50.39;99399.44;7389909;19;20364;-62
2023/09/21 10:22:22;;;;;;;3.50;1.38;;;;;;;25.39;49.96;99370.44;7390103;19;20360;-62
2023/09/21 10:24:53;;;;;;;2.38;1.00;;;;;;;25.47;49.81;99387.94;7389358;19;20368;-62
2023/09/21 10:27:24;;;;;;;1.88;1.27;;;;;;;25.76;50.00;99384.84;7389018;19;20876;-63
2023/09/21 10:29:55;;;;;;;2.07;1.10;;;;;;;26.05;48.94;99381.69;7389966;19;20368;-62
2023/09/21 10:32:24;;;;;;;3.40;1.10;;;;;;;26.38;48.96;99374.03;7388745;19;20352;-63
2023/09/21 10:34:52;;;;;;;2.85;1.02;;;;;;;26.59;48.30;99374.31;7389868;19;20361;-62
2023/09/21 10:37:26;;;;;;;2.55;0.93;;;;;;;26.54;46.71;99379.06;7388386;19;20348;-62
2023/09/21 10:39:59;;;;;;;2.90;1.20;;;;;;;26.41;46.88;99381.56;7388771;19;20368;-62
2023/09/21 10:42:29;;;;;;;4.63;1.13;;;;;;;26.44;47.05;99367.34;7390169;19;20436;-62
2023/09/21 10:45:02;;;;;;;1.75;0.95;;;;;;;26.49;47.09;99385.44;7389775;19;20372;-62
2023/09/21 10:47:50;;;;;;;3.40;1.00;;;;;;;26.56;47.01;99369.50;7389835;19;20377;-62
2023/09/21 10:50:21;;;;;;;2.05;1.08;;;;;;;26.49;46.21;99369.13;7389632;19;20454;-62
2023/09/21 10:52:51;;;;;;;4.05;1.20;;;;;;;26.42;47.22;99368.78;7388795;19;20366;-62
2023/09/21 10:55:20;;;;;;;2.67;1.00;;;;;;;26.42;47.58;99363.34;7389114;19;20402;-63
2023/09/21 10:57:48;;;;;;;3.75;1.20;;;;;;;26.56;47.51;99368.66;7386374;19;20374;-61
2023/09/21 11:00:18;;;;;;;2.35;1.15;;;;;;;26.52;47.17;99363.09;7389660;19;20356;-61
2023/09/21 11:02:47;;;;;;;2.40;1.20;;;;;;;26.61;47.74;99366.66;7391136;19;20364;-63
2023/09/21 11:05:16;;;;;;;3.60;1.10;;;;;;;26.60;47.22;99370.47;7395469;19;20704;-61
2023/09/21 11:07:45;;;;;;;2.55;1.00;;;;;;;26.52;46.71;99352.19;7395956;19;20359;-62
2023/09/21 11:10:12;;;;;;;2.25;0.80;;;;;;;26.44;47.18;99355.69;7395457;19;21035;-62
2023/09/21 11:12:40;;;;;;;2.60;1.10;;;;;;;26.45;47.82;99357.28;7395912;19;20366;-62
2023/09/21 11:15:12;;;;;;;3.15;1.13;;;;;;;26.36;46.95;99359.97;7394672;19;20463;-62
2023/09/21 11:17:41;;;;;;;2.03;1.05;;;;;;;26.42;47.84;99352.47;7392509;19;20366;-65
2023/09/21 11:20:12;;;;;;;3.53;1.20;;;;;;;26.37;47.84;99347.97;7395955;19;20742;-62
2023/09/21 11:22:40;;;;;;;2.27;1.00;;;;;;;26.43;48.59;99348.63;7395005;19;20420;-63
2023/09/21 11:25:09;;;;;;;3.00;1.10;;;;;;;26.40;48.70;99344.63;7394206;19;20392;-63
2023/09/21 11:27:38;;;;;;;2.90;1.20;;;;;;;26.24;48.15;99340.69;7394808;19;20382;-62
2023/09/21 11:30:10;;;;;;;2.28;1.05;;;;;;;26.18;49.23;99336.50;7395714;19;20377;-63
2023/09/21 11:32:45;;;;;;;2.10;1.10;;;;;;;26.02;48.86;99345.06;7395214;19;20431;-63
2023/09/21 11:35:19;;;;;;;3.53;1.40;;;;;;;26.01;49.89;99342.66;7392333;19;20444;-62
2023/09/21 11:37:49;;;;;;;4.05;1.50;;;;;;;25.97;49.99;99336.22;7393007;19;20379;-62
2023/09/21 11:40:21;;;;;;;3.17;1.10;;;;;;;25.88;50.12;99338.88;7393731;19;20349;-62
2023/09/21 11:42:50;;;;;;;4.13;1.17;;;;;;;25.76;50.22;99330.50;7393497;19;20364;-62